Time;durP1;ratioP1;P1;durP2;ratioP2;P2;SDS_P1;SDS_P2;PMS_P1;PMS_P2;Temp;Humidity;BMP_temperature;BMP_pressure;BME280_temperature;BME280_humidity;BME280_pressure;Samples;Min_cycle;Max_cycle;Signal;HPM_P1;HPM_P2
2021/01/10 00:00:37;;;;;;;75.57;39.05;;;;;;;-2.85;66.37;94755.66;1829742;78;21770;-51
2021/01/10 00:03:06;;;;;;;87.47;40.78;;;;;;;-2.81;66.43;94759.20;1829877;78;21036;-51
2021/01/10 00:05:35;;;;;;;74.77;39.60;;;;;;;-2.75;66.25;94761.78;1829861;78;21187;-51
2021/01/10 00:08:04;;;;;;;89.52;42.85;;;;;;;-2.76;66.02;94760.23;1829789;78;21591;-50
2021/01/10 00:10:33;;;;;;;111.47;51.95;;;;;;;-2.80;66.15;94766.14;1829768;78;21143;-52
2021/01/10 00:13:03;;;;;;;127.12;59.15;;;;;;;-2.81;66.39;94765.94;1827918;77;21128;-52
2021/01/10 00:15:31;;;;;;;102.70;50.48;;;;;;;-2.76;66.78;94762.14;1826714;78;21560;-51
2021/01/10 00:18:00;;;;;;;143.65;65.85;;;;;;;-2.71;66.95;94769.34;1826539;77;21369;-53
2021/01/10 00:20:29;;;;;;;137.85;62.95;;;;;;;-2.70;66.71;94768.20;1826541;78;21065;-50
2021/01/10 00:22:57;;;;;;;138.65;63.58;;;;;;;-2.81;66.81;94768.62;1826645;78;21478;-52
2021/01/10 00:25:26;;;;;;;130.82;61.65;;;;;;;-2.85;67.02;94773.16;1826517;78;21064;-51
2021/01/10 00:27:54;;;;;;;123.07;55.95;;;;;;;-2.90;67.08;94778.86;1826591;78;21057;-51
2021/01/10 00:30:23;;;;;;;114.72;58.65;;;;;;;-2.98;67.41;94782.58;1826655;78;22078;-51
2021/01/10 00:32:55;;;;;;;129.23;62.10;;;;;;;-3.03;67.77;94783.45;1826454;78;21132;-50
2021/01/10 00:35:23;;;;;;;139.00;61.65;;;;;;;-3.04;68.06;94785.94;1826536;78;21128;-51
2021/01/10 00:37:54;;;;;;;119.72;54.40;;;;;;;-3.05;68.11;94781.11;1826623;78;21147;-52
2021/01/10 00:40:23;;;;;;;146.45;66.10;;;;;;;-3.12;68.26;94781.01;1826601;78;21065;-51
2021/01/10 00:42:52;;;;;;;149.87;68.35;;;;;;;-3.15;68.39;94788.45;1826558;78;21163;-52
2021/01/10 00:45:20;;;;;;;118.37;55.33;;;;;;;-3.19;68.60;94789.53;1826494;78;21152;-52
2021/01/10 00:47:53;;;;;;;120.37;55.33;;;;;;;-3.17;68.64;94790.73;1826203;78;21186;-51
2021/01/10 00:50:22;;;;;;;129.90;58.93;;;;;;;-3.15;68.49;94788.45;1826788;78;21116;-51
2021/01/10 00:52:50;;;;;;;106.43;50.85;;;;;;;-3.13;68.31;94784.83;1826530;78;21084;-51
2021/01/10 00:55:19;;;;;;;109.25;52.15;;;;;;;-3.12;68.31;94789.63;1826545;78;21385;-51
2021/01/10 00:57:49;;;;;;;100.72;49.03;;;;;;;-3.08;68.29;94791.25;1826577;78;21489;-53
2021/01/10 01:00:19;;;;;;;100.62;47.80;;;;;;;-3.02;67.95;94789.80;1826541;78;21037;-51
2021/01/10 01:02:49;;;;;;;132.93;58.38;;;;;;;-2.95;67.94;94792.63;1826593;78;21052;-51
2021/01/10 01:05:19;;;;;;;183.18;72.58;;;;;;;-2.89;67.67;94791.17;1826528;78;21175;-51
2021/01/10 01:07:49;;;;;;;162.03;71.40;;;;;;;-2.89;67.48;94793.86;1826527;78;21208;-50
2021/01/10 01:10:20;;;;;;;150.35;70.08;;;;;;;-2.88;67.44;94792.72;1826472;78;21195;-51
2021/01/10 01:12:48;;;;;;;116.42;53.35;;;;;;;-2.87;67.32;94800.23;1826308;78;21042;-50
2021/01/10 01:15:17;;;;;;;96.80;47.38;;;;;;;-2.96;67.19;94792.97;1826463;78;21053;-53
2021/01/10 01:17:45;;;;;;;96.82;48.25;;;;;;;-3.05;67.73;94794.56;1826505;77;21207;-51
2021/01/10 01:20:16;;;;;;;102.05;51.75;;;;;;;-3.07;67.81;94792.80;1826523;78;21192;-52
2021/01/10 01:22:45;;;;;;;109.95;54.70;;;;;;;-3.09;67.77;94788.94;1826457;78;21088;-51
2021/01/10 01:25:14;;;;;;;126.05;57.33;;;;;;;-3.12;67.87;94790.42;1826516;78;21104;-51
2021/01/10 01:27:42;;;;;;;110.70;51.98;;;;;;;-3.14;67.77;94795.39;1826476;78;21165;-51
2021/01/10 01:30:11;;;;;;;102.60;48.02;;;;;;;-3.17;67.79;94798.80;1826493;78;21120;-51
2021/01/10 01:32:39;;;;;;;99.65;49.33;;;;;;;-3.22;67.78;94799.08;1826466;78;21371;-52
2021/01/10 01:35:09;;;;;;;115.05;50.10;;;;;;;-3.28;67.89;94802.45;1826556;78;21504;-52
2021/01/10 01:37:37;;;;;;;103.02;49.60;;;;;;;-3.31;68.14;94805.83;1826519;78;21076;-52
2021/01/10 01:40:07;;;;;;;107.75;51.95;;;;;;;-3.27;68.39;94808.03;1826601;78;21080;-52
2021/01/10 01:42:35;;;;;;;120.97;57.38;;;;;;;-3.17;68.40;94806.08;1826485;78;21084;-51
2021/01/10 01:45:08;;;;;;;120.45;55.98;;;;;;;-3.13;68.25;94798.28;1826501;78;21376;-51
2021/01/10 01:47:36;;;;;;;129.87;60.67;;;;;;;-3.18;68.29;94803.97;1826809;78;21080;-51
2021/01/10 01:50:07;;;;;;;152.45;69.82;;;;;;;-3.30;68.46;94805.48;1826475;78;21080;-51
2021/01/10 01:52:36;;;;;;;128.25;59.30;;;;;;;-3.43;68.83;94805.44;1826540;78;21477;-52
2021/01/10 01:55:06;;;;;;;155.43;69.25;;;;;;;-3.45;69.13;94800.98;1826445;78;21081;-51
2021/01/10 01:57:35;;;;;;;101.18;47.33;;;;;;;-3.49;69.25;94808.77;1826463;78;21428;-50
2021/01/10 02:00:06;;;;;;;141.18;70.30;;;;;;;-3.51;69.46;94803.77;1826403;78;21521;-50
2021/01/10 02:02:36;;;;;;;122.82;60.65;;;;;;;-3.47;69.26;94807.29;1825569;78;21064;-50
2021/01/10 02:05:10;;;;;;;109.42;54.70;;;;;;;-3.45;69.03;94813.09;1826473;78;21104;-50
2021/01/10 02:07:55;;;;;;;115.12;54.18;;;;;;;-3.53;68.89;94811.97;1826480;78;21045;-51
2021/01/10 02:10:34;;;;;;;109.57;52.33;;;;;;;-3.62;69.04;94811.98;1826488;78;21370;-51
2021/01/10 02:13:05;;;;;;;112.97;54.88;;;;;;;-3.65;69.09;94811.36;1826936;78;21155;-50
2021/01/10 02:15:34;;;;;;;121.00;55.28;;;;;;;-3.70;69.16;94813.77;1829673;78;21116;-50
2021/01/10 02:18:06;;;;;;;129.68;59.60;;;;;;;-3.69;69.38;94813.20;1829537;77;21139;-51
2021/01/10 02:20:38;;;;;;;140.37;61.18;;;;;;;-3.67;69.26;94819.77;1829701;78;21084;-50
2021/01/10 02:23:19;;;;;;;;;;;;;;;-3.71;69.29;94822.20;1832486;78;21343;-50
2021/01/10 02:25:48;;;;;;;123.38;55.95;;;;;;;-3.68;69.70;94820.13;1816500;78;20236;-50
2021/01/10 02:28:25;;;;;;;133.18;61.25;;;;;;;-3.67;69.27;94824.38;1829608;78;21076;-50
2021/01/10 02:30:54;;;;;;;136.68;61.68;;;;;;;-3.70;69.34;94823.75;1829668;78;21069;-51
2021/01/10 02:33:34;;;;;;;151.30;69.30;;;;;;;-3.73;69.26;94828.49;1829726;78;21529;-50
2021/01/10 02:36:07;;;;;;;145.65;67.27;;;;;;;-3.75;69.39;94822.67;1829765;78;22395;-50
2021/01/10 02:38:46;;;;;;;110.03;52.57;;;;;;;-3.80;69.37;94833.16;1829879;78;21092;-51
2021/01/10 02:41:36;;;;;;;122.50;59.03;;;;;;;-3.86;69.29;94828.42;1829678;78;21041;-50
2021/01/10 02:44:36;;;;;;;169.85;76.22;;;;;;;-3.92;69.28;94826.58;1829677;78;21056;-51
2021/01/10 02:47:05;;;;;;;207.65;89.03;;;;;;;-3.88;69.75;94834.72;1829620;78;21045;-50
2021/01/10 02:49:34;;;;;;;219.65;92.92;;;;;;;-3.74;69.65;94829.59;1829644;78;21375;-51
2021/01/10 02:52:03;;;;;;;182.25;79.92;;;;;;;-3.61;69.47;94830.45;1829510;78;21115;-50
2021/01/10 02:54:31;;;;;;;144.75;66.17;;;;;;;-3.55;69.14;94828.27;1829597;78;21104;-51
2021/01/10 02:57:15;;;;;;;136.15;62.15;;;;;;;-3.54;68.85;94836.53;1829643;78;21163;-50
2021/01/10 02:59:43;;;;;;;133.97;62.08;;;;;;;-3.57;68.86;94831.84;1829436;78;21143;-51
2021/01/10 03:02:13;;;;;;;103.85;49.55;;;;;;;-3.55;68.65;94833.64;1829672;78;21365;-51
2021/01/10 03:04:41;;;;;;;96.87;47.10;;;;;;;-3.59;68.73;94836.25;1829570;78;21176;-51
2021/01/10 03:07:10;;;;;;;91.78;43.95;;;;;;;-3.54;68.78;94829.81;1829628;78;21107;-51
2021/01/10 03:09:40;;;;;;;86.45;42.98;;;;;;;-3.53;68.54;94834.81;1829637;78;21076;-52
2021/01/10 03:12:26;;;;;;;88.00;41.25;;;;;;;-3.54;68.40;94840.56;1829587;78;21048;-50
2021/01/10 03:15:00;;;;;;;112.72;47.08;;;;;;;-3.59;68.32;94833.56;1826968;77;22124;-51
2021/01/10 03:17:43;;;;;;;104.45;43.78;;;;;;;-3.57;68.50;94839.91;1826382;77;21045;-51
2021/01/10 03:20:17;;;;;;;106.92;49.53;;;;;;;-3.58;68.12;94838.36;1826510;78;21143;-50
2021/01/10 03:22:46;;;;;;;125.33;53.45;;;;;;;-3.70;68.11;94842.56;1826427;78;21112;-50
2021/01/10 03:25:17;;;;;;;187.15;78.07;;;;;;;-3.76;68.24;94845.30;1826447;78;21104;-51
2021/01/10 03:27:45;;;;;;;191.15;85.40;;;;;;;-3.83;68.46;94838.45;1826530;78;22260;-51
2021/01/10 03:30:16;;;;;;;113.45;50.40;;;;;;;-3.82;68.68;94843.48;1826354;78;21140;-50
2021/01/10 03:32:45;;;;;;;118.55;51.68;;;;;;;-3.83;68.29;94845.17;1826458;78;21064;-50
2021/01/10 03:35:15;;;;;;;117.05;52.50;;;;;;;-3.95;68.22;94845.30;1826552;78;21183;-51
2021/01/10 03:37:45;;;;;;;129.35;51.70;;;;;;;-4.05;68.57;94839.92;1826807;78;21092;-50
2021/01/10 03:40:14;;;;;;;133.30;58.33;;;;;;;-4.04;68.79;94846.09;1826583;78;21356;-50
2021/01/10 03:42:42;;;;;;;131.87;61.35;;;;;;;-4.00;69.16;94846.38;1826499;78;21116;-50
2021/01/10 03:45:12;;;;;;;126.90;56.45;;;;;;;-3.89;68.94;94842.56;1826558;78;21195;-51
2021/01/10 03:47:40;;;;;;;121.70;53.95;;;;;;;-3.84;68.73;94838.25;1826538;78;21170;-50
2021/01/10 03:50:10;;;;;;;86.53;43.15;;;;;;;-3.85;68.51;94842.83;1826624;78;21076;-50
2021/01/10 03:52:39;;;;;;;93.58;45.28;;;;;;;-3.91;68.73;94838.12;1826693;78;22100;-50
2021/01/10 03:55:09;;;;;;;101.82;47.05;;;;;;;-3.99;69.08;94841.77;1826513;78;21064;-50
2021/01/10 03:57:38;;;;;;;98.82;47.13;;;;;;;-4.06;69.16;94841.64;1826582;78;21466;-50
2021/01/10 04:00:12;;;;;;;97.88;45.20;;;;;;;-4.17;69.31;94841.97;1826523;78;21089;-51
2021/01/10 04:02:40;;;;;;;103.95;48.42;;;;;;;-4.33;69.59;94850.63;1826607;78;21168;-52
2021/01/10 04:05:09;;;;;;;97.17;43.17;;;;;;;-4.43;70.14;94857.33;1826578;78;21202;-50
2021/01/10 04:07:39;;;;;;;107.67;51.70;;;;;;;-4.35;70.37;94855.58;1826613;78;21490;-50
2021/01/10 04:10:08;;;;;;;103.78;47.53;;;;;;;-4.27;70.26;94864.02;1826548;78;21017;-51
2021/01/10 04:12:37;;;;;;;102.95;45.83;;;;;;;-4.26;70.12;94856.17;1826492;78;21072;-50
2021/01/10 04:15:07;;;;;;;94.10;46.05;;;;;;;-4.31;69.78;94861.80;1826413;78;21056;-50
2021/01/10 04:17:35;;;;;;;82.78;41.90;;;;;;;-4.41;69.71;94863.70;1826544;77;21364;-50
2021/01/10 04:20:05;;;;;;;86.32;43.45;;;;;;;-4.49;69.80;94861.97;1826507;78;21143;-50
2021/01/10 04:22:34;;;;;;;108.60;51.23;;;;;;;-4.51;70.00;94862.33;1826571;78;21108;-50
2021/01/10 04:25:05;;;;;;;104.00;54.38;;;;;;;-4.51;70.13;94862.88;1826499;78;21112;-49
2021/01/10 04:27:33;;;;;;;116.60;55.45;;;;;;;-4.49;70.46;94861.42;1826558;78;21096;-50
2021/01/10 04:30:06;;;;;;;166.28;75.62;;;;;;;-4.45;70.52;94869.56;1826517;78;21195;-51
2021/01/10 04:32:34;;;;;;;150.85;69.75;;;;;;;-4.40;70.72;94859.30;1826630;78;21489;-50
2021/01/10 04:35:05;;;;;;;169.05;73.87;;;;;;;-4.26;70.62;94861.55;1826547;78;21117;-51
2021/01/10 04:37:33;;;;;;;162.30;68.95;;;;;;;-4.17;70.33;94857.53;1826493;78;21128;-50
2021/01/10 04:40:05;;;;;;;151.63;72.92;;;;;;;-4.09;70.02;94854.44;1826561;78;21150;-51
2021/01/10 04:42:33;;;;;;;117.05;61.20;;;;;;;-4.07;69.88;94862.91;1826556;78;21193;-51
2021/01/10 04:45:01;;;;;;;116.95;59.75;;;;;;;-4.10;69.98;94854.20;1826480;78;21127;-51
2021/01/10 04:47:30;;;;;;;126.15;57.70;;;;;;;-4.16;70.05;94857.75;1826542;78;21160;-50
2021/01/10 04:49:58;;;;;;;139.95;66.02;;;;;;;-4.22;70.17;94859.13;1826498;78;21052;-50
2021/01/10 04:52:27;;;;;;;151.85;72.87;;;;;;;-4.26;70.06;94861.55;1826622;78;21052;-50
2021/01/10 04:54:55;;;;;;;155.82;74.25;;;;;;;-4.32;70.23;94861.03;1826635;78;22168;-51
2021/01/10 04:57:24;;;;;;;167.55;75.20;;;;;;;-4.30;70.37;94864.69;1795137;78;21560;-50
2021/01/10 04:59:52;;;;;;;126.38;55.88;;;;;;;-4.35;70.46;94870.34;1795138;78;21174;-51
2021/01/10 05:02:26;;;;;;;107.63;54.23;;;;;;;-4.40;70.70;94876.75;1795095;78;21120;-50
2021/01/10 05:04:55;;;;;;;118.17;55.98;;;;;;;-4.48;70.68;94872.37;1795981;78;21147;-51
2021/01/10 05:07:26;;;;;;;120.02;59.60;;;;;;;-4.46;71.11;94873.38;1826542;78;21377;-50
2021/01/10 05:09:54;;;;;;;128.05;60.12;;;;;;;-4.37;71.04;94875.29;1826513;78;21068;-51
2021/01/10 05:12:23;;;;;;;135.15;67.35;;;;;;;-4.31;70.96;94875.22;1826478;78;21132;-51
2021/01/10 05:14:51;;;;;;;138.70;66.37;;;;;;;-4.29;70.80;94876.44;1827925;78;21129;-51
2021/01/10 05:17:22;;;;;;;146.95;66.25;;;;;;;-4.27;70.63;94876.10;1829807;77;21666;-50
2021/01/10 05:19:52;;;;;;;149.00;74.07;;;;;;;-4.26;70.68;94880.34;1829839;78;22015;-50
2021/01/10 05:22:21;;;;;;;147.10;71.45;;;;;;;-4.23;70.76;94889.03;1829692;78;21120;-51
2021/01/10 05:24:49;;;;;;;145.43;68.12;;;;;;;-4.18;70.72;94888.75;1829801;78;21056;-51
2021/01/10 05:27:18;;;;;;;145.32;67.25;;;;;;;-4.10;70.59;94893.14;1829691;78;21048;-51
2021/01/10 05:29:46;;;;;;;148.70;73.60;;;;;;;-4.08;70.44;94889.56;1800393;78;21627;-51
2021/01/10 05:32:15;;;;;;;135.40;67.35;;;;;;;-4.08;70.23;94894.94;1829654;78;21366;-51
2021/01/10 05:34:49;;;;;;;136.12;61.13;;;;;;;-4.12;70.19;94894.05;1765608;78;21572;-50
2021/01/10 05:37:17;;;;;;;164.50;67.15;;;;;;;-4.14;70.29;94895.77;1826568;78;21071;-49
2021/01/10 05:39:46;;;;;;;116.00;51.95;;;;;;;-4.16;70.53;94893.20;1829655;78;21064;-49
2021/01/10 05:42:14;;;;;;;114.12;49.95;;;;;;;-4.17;70.73;94901.05;1829750;78;21095;-50
2021/01/10 05:44:47;;;;;;;132.95;61.73;;;;;;;-4.22;70.52;94906.70;1829680;78;21248;-49
2021/01/10 05:47:16;;;;;;;140.62;71.40;;;;;;;-4.27;70.53;94901.61;1829644;78;21080;-50
2021/01/10 05:49:52;;;;;;;139.82;69.27;;;;;;;-4.29;70.90;94915.92;1829680;78;21056;-50
2021/01/10 05:52:21;;;;;;;165.03;82.20;;;;;;;-4.14;70.87;94907.06;1829737;78;21202;-50
2021/01/10 05:54:55;;;;;;;167.90;83.78;;;;;;;-4.01;70.35;94905.81;1829723;78;21569;-50
2021/01/10 05:57:28;;;;;;;160.35;79.00;;;;;;;-3.93;70.06;94903.48;1829674;78;21375;-51
2021/01/10 05:59:56;;;;;;;168.78;87.45;;;;;;;-3.97;69.65;94909.35;1829774;78;21068;-50
2021/01/10 06:02:37;;;;;;;194.05;91.02;;;;;;;-4.06;69.62;94910.13;1829635;78;21061;-49
2021/01/10 06:05:16;;;;;;;151.95;77.47;;;;;;;-4.10;69.83;94909.25;1829723;78;21063;-50
2021/01/10 06:07:46;;;;;;;135.50;67.17;;;;;;;-4.13;69.83;94918.80;1829696;78;21060;-51
2021/01/10 06:10:29;;;;;;;184.10;90.57;;;;;;;-4.20;69.94;94920.55;1829645;78;21364;-51
2021/01/10 06:13:04;;;;;;;188.20;90.57;;;;;;;-4.23;70.23;94925.28;1829608;78;21076;-50
2021/01/10 06:15:35;;;;;;;168.95;85.77;;;;;;;-4.21;70.31;94924.36;1829434;78;21128;-49
2021/01/10 06:18:05;;;;;;;147.62;76.82;;;;;;;-4.14;70.31;94921.83;1829638;77;21136;-51
2021/01/10 06:20:35;;;;;;;143.52;73.92;;;;;;;-4.07;70.36;94928.72;1829789;78;21568;-51
2021/01/10 06:23:05;;;;;;;163.05;81.45;;;;;;;-3.95;70.11;94932.61;1829553;78;21263;-52
2021/01/10 06:25:37;;;;;;;146.37;74.27;;;;;;;-3.93;69.59;94936.52;1829557;78;21155;-54
2021/01/10 06:28:16;;;;;;;131.22;68.92;;;;;;;-3.93;69.54;94933.03;1829648;78;21085;-52
2021/01/10 06:30:59;;;;;;;135.72;66.82;;;;;;;-3.94;69.43;94935.51;1829748;78;21049;-52
2021/01/10 06:33:32;;;;;;;139.62;71.80;;;;;;;-3.98;69.37;94927.94;1829761;78;21059;-51
2021/01/10 06:36:06;;;;;;;133.95;71.22;;;;;;;-4.05;69.32;94929.91;1829654;78;21373;-52
2021/01/10 06:38:36;;;;;;;145.10;75.30;;;;;;;-4.08;69.42;94938.67;1829719;78;21592;-53
2021/01/10 06:41:44;;;;;;;147.53;81.10;;;;;;;-4.08;69.54;94943.28;1829633;78;21136;-52
2021/01/10 06:44:13;;;;;;;128.55;68.87;;;;;;;-4.04;69.82;94938.76;1829633;78;21100;-51
2021/01/10 06:46:41;;;;;;;153.72;79.37;;;;;;;-3.96;69.80;94947.97;1829601;78;21201;-52
2021/01/10 06:49:09;;;;;;;114.30;60.73;;;;;;;-3.89;69.74;94950.80;1741013;78;21966;-52
2021/01/10 06:51:38;;;;;;;151.15;76.12;;;;;;;-3.81;69.77;94942.33;1829543;78;21100;-51
2021/01/10 06:54:07;;;;;;;124.05;63.58;;;;;;;-3.74;69.50;94938.43;1829603;78;21057;-52
2021/01/10 06:56:35;;;;;;;156.85;84.35;;;;;;;-3.66;69.24;94944.19;1829619;78;21545;-53
2021/01/10 06:59:26;;;;;;;139.50;74.42;;;;;;;-3.65;69.20;94949.19;1829620;78;21151;-51
2021/01/10 07:01:59;;;;;;;136.20;71.70;;;;;;;-3.63;69.18;94943.48;1829739;78;22305;-54
2021/01/10 07:04:38;;;;;;;149.90;82.75;;;;;;;-3.60;69.04;94950.28;1829799;78;21064;-50
2021/01/10 07:07:07;;;;;;;148.00;80.20;;;;;;;-3.52;69.04;94945.25;1829623;78;21170;-53
2021/01/10 07:09:53;;;;;;;134.07;70.62;;;;;;;-3.44;68.88;94955.80;1829615;78;21112;-50
2021/01/10 07:12:22;;;;;;;144.30;74.17;;;;;;;-3.37;69.05;94954.61;1829646;78;21131;-52
2021/01/10 07:14:51;;;;;;;236.00;122.30;;;;;;;-3.35;68.52;94955.03;1828839;78;21442;-52
2021/01/10 07:17:20;;;;;;;378.45;154.27;;;;;;;-3.45;68.41;94962.30;1826389;77;21659;-51
2021/01/10 07:19:50;;;;;;;348.25;155.90;;;;;;;-3.65;68.51;94959.18;1826479;78;21061;-52
2021/01/10 07:22:23;;;;;;;322.07;133.65;;;;;;;-3.83;68.90;94972.25;1826408;78;21136;-53
2021/01/10 07:24:51;;;;;;;;;;;;;;;-3.92;69.17;94968.96;1829241;78;21573;-52
2021/01/10 07:27:33;;;;;;;200.03;101.62;;;;;;;-4.01;69.41;94972.97;1826534;78;22308;-53
2021/01/10 07:30:21;;;;;;;283.47;142.80;;;;;;;-4.09;69.68;94976.64;1826378;78;21183;-52
2021/01/10 07:32:49;;;;;;;194.10;98.70;;;;;;;-4.09;70.18;94974.71;1779618;78;21061;-52
2021/01/10 07:35:18;;;;;;;207.80;108.12;;;;;;;-3.94;69.99;94977.15;1826425;78;21049;-53
2021/01/10 07:37:47;;;;;;;204.50;111.75;;;;;;;-3.85;69.83;94973.72;1826439;78;21064;-54
2021/01/10 07:40:23;;;;;;;228.95;127.80;;;;;;;-3.80;69.76;94964.03;1826520;78;22214;-54
2021/01/10 07:43:00;;;;;;;168.82;92.40;;;;;;;-3.71;69.83;94970.00;1826320;78;21200;-54
2021/01/10 07:45:38;;;;;;;176.85;98.55;;;;;;;-3.64;69.55;94978.20;1826203;78;21179;-53
2021/01/10 07:48:06;;;;;;;159.27;88.07;;;;;;;-3.64;69.56;94976.86;1826404;78;21048;-52
2021/01/10 07:50:35;;;;;;;161.20;89.00;;;;;;;-3.64;69.53;94976.31;1826385;78;21068;-55
2021/01/10 07:53:04;;;;;;;197.45;104.53;;;;;;;-3.62;69.65;94979.97;1826433;78;22066;-51
2021/01/10 07:55:33;;;;;;;260.90;127.78;;;;;;;-3.64;69.79;94986.27;1826279;78;21120;-52
2021/01/10 07:58:07;;;;;;;230.62;115.10;;;;;;;-3.61;69.84;94986.91;1826399;78;21097;-53
2021/01/10 08:00:50;;;;;;;206.47;110.40;;;;;;;-3.56;69.90;94988.76;1826422;78;20985;-54
2021/01/10 08:03:23;;;;;;;238.65;119.35;;;;;;;-3.54;69.73;94992.45;1826435;78;21069;-55
2021/01/10 08:06:04;;;;;;;249.58;126.30;;;;;;;-3.56;69.78;94996.82;1826510;78;21370;-52
2021/01/10 08:08:45;;;;;;;316.63;126.62;;;;;;;-3.51;69.89;94991.16;1826355;78;21549;-54
2021/01/10 08:11:30;;;;;;;238.10;122.58;;;;;;;-3.43;69.86;94992.88;1826389;78;21140;-54
2021/01/10 08:14:00;;;;;;;162.18;86.02;;;;;;;-3.34;69.76;94986.16;1826348;78;21040;-51
2021/01/10 08:16:33;;;;;;;152.32;84.75;;;;;;;-3.15;69.73;94990.75;1826179;77;21147;-53
2021/01/10 08:19:03;;;;;;;147.90;78.72;;;;;;;-2.90;69.36;94990.68;1826453;78;21192;-52
2021/01/10 08:21:32;;;;;;;83.67;48.45;;;;;;;-2.75;68.95;94986.54;1826546;78;21575;-52
2021/01/10 08:24:03;;;;;;;73.52;38.48;;;;;;;-2.59;68.55;94986.42;1826056;78;21128;-52
2021/01/10 08:26:41;;;;;;;138.77;71.95;;;;;;;-2.52;68.18;94977.91;1826507;78;21128;-53
2021/01/10 08:29:09;;;;;;;137.30;72.00;;;;;;;-2.47;67.96;94987.02;1826585;78;21064;-53
2021/01/10 08:31:40;;;;;;;170.25;77.37;;;;;;;-2.33;67.86;94987.86;1826544;78;21358;-52
2021/01/10 08:34:16;;;;;;;91.05;47.03;;;;;;;-2.18;67.54;94980.98;1826560;78;21527;-52
2021/01/10 08:36:42;;;;;;;133.72;64.25;;;;;;;-2.08;66.83;94968.27;1825789;78;21140;-52
2021/01/10 08:39:12;;;;;;;81.87;44.55;;;;;;;-1.99;66.87;94970.70;1770753;78;21156;-54
2021/01/10 08:41:50;;;;;;;125.38;64.15;;;;;;;-1.83;66.20;94973.45;1826516;78;21163;-53
2021/01/10 08:44:18;;;;;;;76.10;42.45;;;;;;;-1.65;65.92;94966.39;1826401;78;22821;-55
2021/01/10 08:46:51;;;;;;;74.65;41.98;;;;;;;-1.39;65.17;94964.99;1795110;78;21068;-54
2021/01/10 08:49:27;;;;;;;66.45;36.48;;;;;;;-1.33;64.41;94964.89;1826832;78;21588;-52
2021/01/10 08:51:53;;;;;;;52.23;29.40;;;;;;;-1.29;64.33;94967.82;1825554;78;21191;-54
2021/01/10 08:54:27;;;;;;;52.78;29.18;;;;;;;-1.29;63.88;94967.06;1826552;78;21576;-52
2021/01/10 08:56:57;;;;;;;35.48;21.82;;;;;;;-1.17;63.60;94968.19;1826622;78;22251;-54
2021/01/10 08:59:40;;;;;;;41.68;23.85;;;;;;;-0.99;62.88;94952.97;1826565;78;21517;-52
2021/01/10 09:02:09;;;;;;;28.02;18.12;;;;;;;-0.76;62.92;94953.02;1826626;78;21076;-52
2021/01/10 09:04:44;;;;;;;34.13;22.07;;;;;;;-0.50;62.00;94952.11;1826491;78;21068;-52
2021/01/10 09:07:20;;;;;;;25.17;17.77;;;;;;;-0.25;61.36;94950.44;1826594;78;21124;-52
2021/01/10 09:10:03;;;;;;;41.50;23.40;;;;;;;0.02;60.25;94949.29;1826519;78;21939;-53
2021/01/10 09:12:35;;;;;;;30.77;18.85;;;;;;;0.36;59.68;94945.28;1826413;78;21241;-52
2021/01/10 09:15:21;;;;;;;49.42;23.22;;;;;;;0.57;58.93;94941.33;1826465;78;21104;-51
2021/01/10 09:18:01;;;;;;;28.23;19.05;;;;;;;0.73;58.44;94932.89;1829918;77;21106;-54
2021/01/10 09:20:34;;;;;;;39.90;22.87;;;;;;;0.75;57.78;94916.48;1829992;78;21050;-52
2021/01/10 09:23:09;;;;;;;43.63;19.87;;;;;;;0.81;57.73;94914.19;1830032;78;21161;-53
2021/01/10 09:25:38;;;;;;;25.48;15.05;;;;;;;1.04;57.15;94907.31;1829893;78;21099;-53
2021/01/10 09:28:11;;;;;;;25.43;15.32;;;;;;;1.44;56.34;94911.08;1829972;78;21094;-54
2021/01/10 09:30:54;;;;;;;27.07;16.52;;;;;;;1.94;55.18;94914.03;1830128;78;21079;-52
2021/01/10 09:33:31;;;;;;;21.60;14.50;;;;;;;2.43;54.20;94906.59;1827910;78;21614;-51
2021/01/10 09:36:01;;;;;;;25.95;13.38;;;;;;;2.72;52.79;94906.70;1830054;78;22227;-53
2021/01/10 09:38:31;;;;;;;14.23;10.60;;;;;;;2.99;52.20;94902.34;1829888;78;21059;-53
2021/01/10 09:41:15;;;;;;;11.68;8.08;;;;;;;3.54;50.80;94897.77;1829958;78;21146;-51
2021/01/10 09:43:52;;;;;;;18.40;8.70;;;;;;;4.09;48.76;94903.36;1830107;78;21094;-52
2021/01/10 09:46:31;;;;;;;13.03;8.88;;;;;;;4.49;47.21;94904.56;1829993;78;21205;-56
2021/01/10 09:49:04;;;;;;;11.35;8.53;;;;;;;4.57;46.52;94895.16;1829961;78;21243;-52
2021/01/10 09:51:44;;;;;;;14.03;10.58;;;;;;;4.46;46.26;94887.07;1829966;78;22636;-53
2021/01/10 09:54:22;;;;;;;17.25;9.98;;;;;;;4.35;46.39;94886.99;1829925;78;21107;-53
2021/01/10 09:56:59;;;;;;;15.08;10.00;;;;;;;4.44;45.58;94896.84;1830061;78;21587;-53
2021/01/10 09:59:41;;;;;;;12.20;8.08;;;;;;;4.35;45.30;94895.95;1829991;77;21071;-53
2021/01/10 10:02:26;;;;;;;12.10;9.55;;;;;;;4.23;45.57;94896.44;1830092;78;21530;-55
2021/01/10 10:05:08;;;;;;;22.80;11.63;;;;;;;4.03;45.23;94898.17;1828927;78;21174;-53
2021/01/10 10:07:41;;;;;;;14.65;8.95;;;;;;;3.90;45.48;94893.63;1830223;78;21511;-56
2021/01/10 10:10:26;;;;;;;13.88;9.50;;;;;;;3.67;45.60;94887.98;1830204;78;21090;-57
2021/01/10 10:13:00;;;;;;;18.98;10.53;;;;;;;3.50;46.18;94892.34;1829943;78;21047;-52
2021/01/10 10:15:51;;;;;;;19.42;10.75;;;;;;;3.38;46.26;94894.00;1829697;78;21190;-52
2021/01/10 10:18:26;;;;;;;17.77;10.75;;;;;;;3.51;46.63;94890.41;1795219;78;21084;-53
2021/01/10 10:20:55;;;;;;;18.50;11.60;;;;;;;3.91;46.30;94885.64;1826504;78;21120;-50
2021/01/10 10:23:24;;;;;;;14.18;9.43;;;;;;;4.25;46.57;94876.99;1826393;78;21140;-53
2021/01/10 10:25:52;;;;;;;28.17;13.70;;;;;;;4.42;46.30;94876.05;1826472;78;21067;-53
2021/01/10 10:28:20;;;;;;;24.25;12.70;;;;;;;4.48;44.85;94884.74;1826468;78;21196;-53
2021/01/10 10:30:50;;;;;;;18.42;11.80;;;;;;;4.49;44.28;94876.75;1826392;78;21073;-52
2021/01/10 10:33:19;;;;;;;27.55;11.08;;;;;;;4.59;43.87;94882.66;1826390;78;21068;-54
2021/01/10 10:35:47;;;;;;;43.78;15.53;;;;;;;4.80;43.96;94875.61;1826422;78;21076;-56
2021/01/10 10:38:16;;;;;;;32.38;15.05;;;;;;;5.04;43.81;94856.84;1826516;78;21497;-53
2021/01/10 10:40:45;;;;;;;13.28;9.20;;;;;;;5.18;44.16;94861.34;1826473;78;21202;-56
2021/01/10 10:43:14;;;;;;;14.95;10.00;;;;;;;5.37;42.77;94860.08;1825799;78;21140;-54
2021/01/10 10:45:43;;;;;;;17.25;13.38;;;;;;;5.68;42.58;94861.58;1825576;78;21159;-54
2021/01/10 10:48:12;;;;;;;34.00;13.22;;;;;;;5.89;42.35;94859.34;1826145;78;21965;-52
2021/01/10 10:50:42;;;;;;;21.07;13.65;;;;;;;6.14;41.47;94863.04;1826329;78;21158;-54
2021/01/10 10:53:11;;;;;;;22.50;14.50;;;;;;;6.24;40.78;94859.34;1826516;78;21389;-54
2021/01/10 10:55:40;;;;;;;19.37;11.70;;;;;;;6.52;40.22;94854.75;1826365;78;21071;-55
2021/01/10 10:58:09;;;;;;;13.50;9.73;;;;;;;7.08;38.84;94853.83;1826383;78;21067;-53
2021/01/10 11:00:40;;;;;;;13.72;10.28;;;;;;;7.43;37.75;94851.72;1826445;78;21067;-53
2021/01/10 11:03:09;;;;;;;20.12;12.37;;;;;;;7.60;37.19;94849.20;1826388;77;21131;-51
2021/01/10 11:05:38;;;;;;;35.03;11.93;;;;;;;7.53;36.85;94845.23;1826407;78;21324;-53
2021/01/10 11:08:08;;;;;;;7.17;5.87;;;;;;;7.32;37.12;94837.48;1826220;78;21094;-51
2021/01/10 11:10:37;;;;;;;18.10;6.33;;;;;;;7.08;35.99;94842.11;1826394;77;21052;-52
2021/01/10 11:13:06;;;;;;;30.32;8.50;;;;;;;6.76;36.83;94838.47;1826458;78;21476;-56
2021/01/10 11:15:34;;;;;;;9.78;6.58;;;;;;;6.60;37.25;94837.81;1826336;78;21146;-53
2021/01/10 11:18:03;;;;;;;27.58;10.80;;;;;;;6.47;37.42;94833.36;1797421;78;21197;-52
2021/01/10 11:20:31;;;;;;;34.45;12.68;;;;;;;6.35;38.29;94839.45;1795914;80;21495;-53
2021/01/10 11:23:02;;;;;;;28.73;13.58;;;;;;;6.35;38.11;94846.28;1795866;79;21135;-53
2021/01/10 11:25:30;;;;;;;31.37;15.23;;;;;;;6.36;38.12;94836.89;1795984;80;21638;-54
2021/01/10 11:27:59;;;;;;;18.98;13.08;;;;;;;6.35;38.60;94839.45;1795844;78;21137;-51
2021/01/10 11:30:27;;;;;;;17.05;9.20;;;;;;;6.39;37.91;94832.73;1795820;80;21199;-53
2021/01/10 11:32:56;;;;;;;10.55;7.53;;;;;;;6.56;37.45;94834.34;1795702;80;21099;-54
2021/01/10 11:35:25;;;;;;;9.73;7.92;;;;;;;6.70;37.29;94834.09;1795835;80;21135;-54